West Wardsboro, VT (05360)

3:39 PM EDT on September 02, 2015 (GMT -0400)
Stratton Mountain | | Change Station
CLOSE
Current Station
Personal Weather Station
Location: Stratton, VT
Elevation: 3159 ft
Nearby Weather Stations

Elev 3159 ft 43.10 °N, 72.92 °W | Updated 4 minutes ago

Clear
Clear
70.2 °F
Feels Like 70 °F
N
5.0
Wind Variable Wind from NNE

Today
High -- | Low -- °F
--% Chance of Precip.
Yesterday
High -- | Low -- °F
Precip. -- in
6:16 AM 7:25 PM
Waning Gibbous, 78% visible
Pressure 29.96 in
Visibility 10.0 miles
Clouds Clear
Heat Index 70 °F
Dew Point 3 °F
Humidity 7%
Rainfall 0.00 in
Snow Depth Not available.
UV 7 out of 12
Pollen 9.30 out of 12
Air Quality Not available.
Flu Activity Not available.
METAR KDDH 021854Z AUTO VRB05KT 10SM CLR 29/16 A2997 RMK AO2 SLP143 T02890161
Pressure 29.96 in
Visibility 10.0 miles
Clouds Clear
Heat Index 70 °F
Dew Point 3 °F
Humidity 7%
Rainfall 0.00 in
Snow Depth Not available.
UV 7 out of 12
Pollen 9.30 out of 12
Air Quality Not available.
Flu Activity Not available.
METAR KDDH 021854Z AUTO VRB05KT 10SM CLR 29/16 A2997 RMK AO2 SLP143 T02890161

10-Day Weather Forecast

×

Almanac

Astronomy

Sep. 02, 2015 Rise Set
Actual Time
Civil Twilight
Nautical Twilight
Astronomical Twilight
Moon
Length of Visible Light
Length of Day
Tomorrow will be .
, % of the Moon is Illuminated

Today's Extremes

State Highs State Lows

Community

WunderPhotos

Upload Photos

1,851,799 photos uploaded!

WunderBlogs® & News

Nearby

Air Quality

  Air Quality AQ Index Pollutant
Not available.

Snow Depth

Station Depth Elevation

Earthquake Activity

City Distance Mag. Time & Date
Minimum magnitude displayed is 2.5.

Coastal Water Temperatures

Place Temperature

Stations

Nearby Weather Stations

Station Location Temp. Windchill Dew Point Humidity Wind Precip. Elev Updated Type